createdAt,value
2019-04-01T00:01:53.074Z,21.45
2019-04-01T00:04:21.921Z,22.42
2019-04-01T00:06:50.774Z,23.00
2019-04-01T00:09:19.608Z,21.37
2019-04-01T00:11:48.452Z,23.05
2019-04-01T00:14:17.282Z,22.15
2019-04-01T00:16:46.140Z,22.48
2019-04-01T00:19:14.907Z,22.40
2019-04-01T00:21:44.691Z,22.00
2019-04-01T00:24:13.876Z,22.00
2019-04-01T00:26:42.761Z,23.22
2019-04-01T00:29:11.625Z,22.07
2019-04-01T00:31:41.804Z,22.45
2019-04-01T00:34:10.663Z,22.40
2019-04-01T00:36:39.475Z,23.47
2019-04-01T00:39:08.757Z,22.85
2019-04-01T00:41:39.148Z,22.60
2019-04-01T00:44:12.699Z,22.27
2019-04-01T00:46:41.946Z,22.02
2019-04-01T00:49:10.829Z,22.10
2019-04-01T00:51:39.648Z,21.97
2019-04-01T00:54:08.461Z,21.60
2019-04-01T00:56:37.294Z,21.93
2019-04-01T00:59:06.170Z,21.48
2019-04-01T01:01:35.030Z,21.50
2019-04-01T01:04:03.853Z,21.80
2019-04-01T01:06:32.738Z,22.02
2019-04-01T01:09:01.575Z,20.52
2019-04-01T01:11:30.430Z,21.97
2019-04-01T01:13:59.271Z,21.35
2019-04-01T01:16:28.128Z,21.07
2019-04-01T01:18:56.903Z,20.27
2019-04-01T01:21:25.878Z,21.40
2019-04-01T01:23:54.746Z,20.57
2019-04-01T01:26:23.574Z,20.25
2019-04-01T01:28:52.429Z,20.20
2019-04-01T01:31:21.258Z,21.77
2019-04-01T01:33:50.120Z,21.15
2019-04-01T01:36:18.937Z,21.05
2019-04-01T01:38:47.801Z,21.97
2019-04-01T01:41:16.626Z,21.12
2019-04-01T01:43:45.473Z,21.12
2019-04-01T01:46:14.312Z,22.15
2019-04-01T01:48:43.174Z,20.02
2019-04-01T01:51:12.014Z,21.60
2019-04-01T01:53:41.805Z,21.75
2019-04-01T01:56:10.900Z,21.87
2019-04-01T01:58:39.733Z,21.07
2019-04-01T02:01:08.598Z,20.90
2019-04-01T02:03:37.426Z,21.10
2019-04-01T02:06:06.307Z,20.50
2019-04-01T02:08:35.134Z,21.55
2019-04-01T02:11:03.971Z,19.65
2019-04-01T02:13:32.825Z,19.82
2019-04-01T02:16:01.658Z,20.68
2019-04-01T02:18:30.529Z,21.37
2019-04-01T02:20:59.340Z,21.73
2019-04-01T02:23:28.196Z,20.85
2019-04-01T02:25:57.027Z,20.85
2019-04-01T02:28:25.879Z,20.25
2019-04-01T02:30:54.714Z,19.77
2019-04-01T02:33:23.540Z,20.45
2019-04-01T02:35:52.395Z,21.45
2019-04-01T02:38:21.215Z,21.62
2019-04-01T02:40:50.078Z,19.62
2019-04-01T02:43:19.009Z,20.48
2019-04-01T02:45:47.833Z,20.05
2019-04-01T02:48:16.799Z,19.62
2019-04-01T02:50:45.645Z,20.00
2019-04-01T02:53:14.511Z,20.05
2019-04-01T02:55:43.325Z,20.25
2019-04-01T02:58:12.188Z,20.30
2019-04-01T03:00:41.016Z,19.62
2019-04-01T03:03:09.904Z,17.77
2019-04-01T03:05:38.758Z,19.20
2019-04-01T03:08:07.604Z,18.95
2019-04-01T03:10:36.445Z,17.70
2019-04-01T03:13:05.283Z,18.00
2019-04-01T03:15:34.154Z,18.87
2019-04-01T03:18:02.985Z,18.27
2019-04-01T03:20:31.823Z,18.15
2019-04-01T03:23:00.637Z,19.40
2019-04-01T03:25:30.307Z,18.45
2019-04-01T03:27:59.143Z,17.57
2019-04-01T03:30:28.025Z,18.65
2019-04-01T03:32:56.875Z,18.12
2019-04-01T03:35:25.821Z,17.82
2019-04-01T03:37:54.679Z,18.17
2019-04-01T03:40:23.489Z,17.87
2019-04-01T03:42:52.357Z,18.27
2019-04-01T03:45:21.167Z,17.65
2019-04-01T03:47:50.058Z,18.12
2019-04-01T03:50:18.877Z,17.52
2019-04-01T03:52:47.738Z,17.40
2019-04-01T03:55:16.578Z,17.75
2019-04-01T03:57:45.420Z,18.30
2019-04-01T04:00:14.761Z,17.52
2019-04-01T04:02:43.627Z,17.57
2019-04-01T04:05:12.527Z,17.60
2019-04-01T04:07:41.411Z,16.90
2019-04-01T04:10:10.654Z,16.27
2019-04-01T04:12:39.504Z,16.80
2019-04-01T04:15:08.440Z,16.37
2019-04-01T04:17:37.257Z,15.48
2019-04-01T04:20:06.358Z,15.72
2019-04-01T04:22:35.127Z,14.90
2019-04-01T04:25:05.083Z,15.15
2019-04-01T04:27:33.934Z,14.85
2019-04-01T04:30:02.796Z,14.98
2019-04-01T04:32:31.632Z,14.68
2019-04-01T04:35:00.516Z,14.35
2019-04-01T04:37:29.324Z,15.78
2019-04-01T04:39:58.208Z,15.15
2019-04-01T04:42:27.073Z,15.35
2019-04-01T04:44:56.311Z,14.63
2019-04-01T04:47:25.185Z,14.93
2019-04-01T04:49:53.998Z,14.58
2019-04-01T04:52:22.864Z,14.65
2019-04-01T04:54:51.676Z,14.80
2019-04-01T04:57:20.650Z,15.32
2019-04-01T04:59:49.470Z,14.03
2019-04-01T05:02:18.343Z,13.58
2019-04-01T05:04:47.205Z,13.58
2019-04-01T05:07:31.382Z,14.30
2019-04-01T05:10:03.950Z,13.38
2019-04-01T05:12:47.233Z,13.55
2019-04-01T05:15:16.755Z,13.18
2019-04-01T05:17:45.624Z,13.55
2019-04-01T05:20:16.507Z,13.78
2019-04-01T05:22:45.904Z,13.72
2019-04-01T05:25:14.759Z,13.20
2019-04-01T05:27:43.572Z,12.82
2019-04-01T05:30:12.853Z,14.23
2019-04-01T05:32:43.188Z,13.35
2019-04-01T05:35:12.043Z,13.60
2019-04-01T05:37:41.466Z,14.15
2019-04-01T05:40:10.456Z,13.85
2019-04-01T05:42:39.274Z,13.45
2019-04-01T05:45:08.623Z,12.85
2019-04-01T05:47:39.039Z,13.78
2019-04-01T05:50:08.908Z,13.30
2019-04-01T05:52:38.343Z,14.07
2019-04-01T05:55:08.980Z,14.10
2019-04-01T05:57:37.670Z,13.40
2019-04-01T06:00:08.163Z,14.07
2019-04-01T06:02:37.040Z,13.88
2019-04-01T06:05:07.376Z,13.53
2019-04-01T06:07:36.564Z,14.10
2019-04-01T06:10:07.245Z,13.00
2019-04-01T06:12:36.467Z,13.55
2019-04-01T06:15:08.445Z,13.45
2019-04-01T06:17:37.287Z,13.22
2019-04-01T06:20:08.220Z,13.70
2019-04-01T06:22:37.045Z,13.48
2019-04-01T06:25:07.207Z,13.78
2019-04-01T06:27:36.034Z,14.30
2019-04-01T06:30:06.892Z,13.48
2019-04-01T06:32:35.722Z,13.32
2019-04-01T06:35:08.812Z,15.18
2019-04-01T06:37:37.656Z,14.43
2019-04-01T06:40:07.320Z,14.78
2019-04-01T06:42:36.283Z,14.28
2019-04-01T06:45:06.914Z,15.08
2019-04-01T06:47:35.707Z,14.65
2019-04-01T06:50:06.146Z,14.95
2019-04-01T06:52:35.125Z,16.20
2019-04-01T06:55:04.455Z,17.05
2019-04-01T06:57:33.329Z,17.50
2019-04-01T07:00:02.166Z,16.50
2019-04-01T07:02:31.017Z,17.23
2019-04-01T07:04:59.842Z,17.42
2019-04-01T07:07:28.642Z,16.82
2019-04-01T07:09:57.480Z,16.00
2019-04-01T07:12:26.348Z,16.85
2019-04-01T07:14:55.212Z,15.63
2019-04-01T07:17:24.023Z,15.40
2019-04-01T07:19:52.881Z,16.35
2019-04-01T07:22:21.711Z,15.13
2019-04-01T07:24:52.024Z,15.95
2019-04-01T07:27:21.545Z,14.47
2019-04-01T07:29:50.520Z,15.10
2019-04-01T07:32:19.410Z,14.28
2019-04-01T07:34:48.279Z,14.45
2019-04-01T07:37:17.106Z,14.80
2019-04-01T07:39:46.090Z,14.18
2019-04-01T07:42:14.983Z,12.10
2019-04-01T07:44:44.550Z,11.85
2019-04-01T07:47:13.428Z,11.53
2019-04-01T07:49:42.255Z,10.03
2019-04-01T07:52:11.426Z,9.43
2019-04-01T07:54:40.253Z,8.20
2019-04-01T07:57:09.113Z,7.50
2019-04-01T07:59:38.055Z,7.85
2019-04-01T08:02:06.906Z,7.80
2019-04-01T08:04:35.723Z,7.83
2019-04-01T08:07:04.572Z,7.53
2019-04-01T08:09:34.420Z,7.92
2019-04-01T08:12:03.590Z,7.75
2019-04-01T08:14:32.412Z,7.78
2019-04-01T08:17:01.588Z,7.83
2019-04-01T08:19:30.524Z,7.90
2019-04-01T08:21:59.473Z,7.70
2019-04-01T08:24:28.297Z,7.70
2019-04-01T08:26:57.173Z,7.47
2019-04-01T08:29:30.417Z,7.15
2019-04-01T08:31:56.485Z,7.50
2019-04-01T08:34:25.365Z,7.47
2019-04-01T08:36:54.174Z,7.05
2019-04-01T08:39:23.029Z,6.95
2019-04-01T08:41:51.868Z,7.80
2019-04-01T08:44:20.721Z,7.50
2019-04-01T08:46:49.536Z,7.55
2019-04-01T08:49:18.394Z,7.60
2019-04-01T08:51:47.140Z,7.90
2019-04-01T08:54:16.013Z,7.60
2019-04-01T08:56:44.820Z,7.50
2019-04-01T08:59:13.965Z,8.43
2019-04-01T09:01:42.798Z,7.87
2019-04-01T09:04:11.681Z,8.30
2019-04-01T09:06:40.526Z,7.85
2019-04-01T09:09:09.368Z,8.28
2019-04-01T09:11:39.113Z,8.35
2019-04-01T09:14:07.947Z,8.93
2019-04-01T09:16:38.020Z,8.75
2019-04-01T09:19:06.841Z,8.10
2019-04-01T09:21:35.701Z,7.95
2019-04-01T09:24:04.621Z,7.92
2019-04-01T09:26:33.479Z,8.93
2019-04-01T09:29:02.325Z,8.30
2019-04-01T09:31:31.166Z,9.00
2019-04-01T09:34:00.037Z,9.00
2019-04-01T09:36:28.872Z,8.90
2019-04-01T09:38:57.737Z,9.55
2019-04-01T09:41:26.567Z,9.18
2019-04-01T09:43:55.422Z,9.23
2019-04-01T09:46:24.241Z,8.75
2019-04-01T09:48:53.013Z,8.78
2019-04-01T09:51:21.840Z,8.65
2019-04-01T09:53:50.773Z,9.90
2019-04-01T09:56:19.664Z,9.28
2019-04-01T09:58:48.484Z,9.53
2019-04-01T10:01:17.346Z,9.13
2019-04-01T10:03:47.309Z,9.48
2019-04-01T10:06:16.138Z,9.68
2019-04-01T10:08:44.894Z,9.13
2019-04-01T10:11:13.758Z,8.80
2019-04-01T10:13:42.577Z,9.88
2019-04-01T10:16:11.521Z,9.65
2019-04-01T10:18:40.364Z,9.20
2019-04-01T10:21:09.220Z,9.93
2019-04-01T10:23:38.105Z,8.85
2019-04-01T10:26:06.996Z,7.92
2019-04-01T10:28:35.918Z,9.73
2019-04-01T10:31:04.902Z,9.48
2019-04-01T10:33:33.818Z,10.03
2019-04-01T10:36:02.693Z,10.78
2019-04-01T10:38:31.618Z,9.70
2019-04-01T10:41:00.491Z,10.90
2019-04-01T10:43:29.412Z,10.25
2019-04-01T10:45:58.304Z,9.33
2019-04-01T10:48:27.216Z,10.20
2019-04-01T10:50:56.260Z,10.60
2019-04-01T10:53:25.218Z,9.80
2019-04-01T10:55:54.155Z,9.55
2019-04-01T10:58:23.101Z,9.98
2019-04-01T11:00:52.062Z,10.13
2019-04-01T11:03:21.098Z,10.13
2019-04-01T11:05:50.073Z,10.53
2019-04-01T11:08:19.078Z,11.05
2019-04-01T11:10:48.095Z,14.68
2019-04-01T11:13:16.914Z,9.50
2019-04-01T11:15:45.829Z,10.38
2019-04-01T11:18:14.710Z,13.75
2019-04-01T11:20:43.616Z,11.97
2019-04-01T11:23:12.495Z,10.23
2019-04-01T11:25:41.423Z,11.12
2019-04-01T11:28:10.291Z,10.10
2019-04-01T11:30:39.252Z,9.68
2019-04-01T11:33:08.202Z,8.65
2019-04-01T11:35:37.567Z,9.18
2019-04-01T11:38:06.568Z,8.38
2019-04-01T11:40:38.636Z,8.73
2019-04-01T11:43:05.983Z,9.83
2019-04-01T11:45:34.983Z,9.08
2019-04-01T11:48:04.021Z,9.93
2019-04-01T11:50:32.950Z,10.63
2019-04-01T11:53:01.897Z,10.70
2019-04-01T11:55:30.759Z,9.43
2019-04-01T11:57:59.667Z,10.32
2019-04-01T12:00:28.560Z,11.10
2019-04-01T12:02:57.496Z,10.98
2019-04-01T12:05:26.402Z,10.95
2019-04-01T12:07:55.276Z,11.28
2019-04-01T12:10:24.201Z,10.05
2019-04-01T12:12:53.094Z,9.18
2019-04-01T12:15:21.995Z,9.15
2019-04-01T12:17:50.875Z,8.88
2019-04-01T12:20:19.785Z,9.80
2019-04-01T12:22:48.726Z,9.73
2019-04-01T12:25:17.646Z,9.23
2019-04-01T12:27:46.523Z,7.97
2019-04-01T12:30:16.341Z,8.43
2019-04-01T12:32:45.254Z,8.75
2019-04-01T12:35:14.171Z,8.38
2019-04-01T12:37:43.077Z,7.97
2019-04-01T12:40:12.268Z,7.10
2019-04-01T12:42:41.177Z,8.18
2019-04-01T12:45:10.654Z,9.75
2019-04-01T12:47:42.987Z,9.00
2019-04-01T12:50:12.015Z,8.65
2019-04-01T12:52:40.942Z,8.55
2019-04-01T12:55:09.922Z,9.08
2019-04-01T12:57:38.837Z,8.38
2019-04-01T13:00:10.189Z,8.98
2019-04-01T13:02:39.116Z,8.83
2019-04-01T13:05:08.083Z,7.95
2019-04-01T13:07:36.874Z,7.40
2019-04-01T13:10:07.590Z,7.42
2019-04-01T13:12:36.491Z,7.72
2019-04-01T13:15:06.113Z,9.78
2019-04-01T13:17:35.077Z,8.90
2019-04-01T13:20:05.115Z,8.53
2019-04-01T13:22:34.001Z,9.15
2019-04-01T13:25:05.669Z,8.28
2019-04-01T13:27:33.450Z,8.70
2019-04-01T13:30:02.361Z,8.45
2019-04-01T13:32:31.236Z,7.78
2019-04-01T13:35:00.149Z,7.80
2019-04-01T13:37:29.029Z,8.10
2019-04-01T13:39:57.869Z,9.65
2019-04-01T13:42:26.780Z,8.83
2019-04-01T13:44:55.679Z,9.35
2019-04-01T13:47:24.954Z,8.25
2019-04-01T13:49:53.959Z,8.63
2019-04-01T13:52:23.124Z,8.65
2019-04-01T13:54:52.070Z,10.20
2019-04-01T13:57:21.277Z,10.48
2019-04-01T13:59:51.775Z,9.40
2019-04-01T14:02:20.994Z,9.73
2019-04-01T14:04:50.212Z,9.70
2019-04-01T14:07:19.335Z,8.93
2019-04-01T14:09:48.238Z,10.20
2019-04-01T14:12:17.474Z,10.35
2019-04-01T14:14:46.327Z,9.43
2019-04-01T14:17:15.232Z,8.50
2019-04-01T14:19:44.141Z,9.35
2019-04-01T14:22:13.017Z,9.53
2019-04-01T14:24:42.685Z,9.63
2019-04-01T14:27:12.819Z,9.18
2019-04-01T14:29:41.715Z,9.03
2019-04-01T14:32:10.608Z,9.70
2019-04-01T14:34:39.511Z,9.80
2019-04-01T14:37:09.825Z,9.23
2019-04-01T14:39:38.930Z,8.83
2019-04-01T14:42:08.703Z,8.30
2019-04-01T14:44:42.146Z,8.25
2019-04-01T14:47:11.083Z,8.15
2019-04-01T14:49:41.688Z,8.75
2019-04-01T14:52:11.332Z,9.15
2019-04-01T14:54:41.102Z,8.93
2019-04-01T14:57:10.006Z,9.55
2019-04-01T14:59:38.900Z,9.78
2019-04-01T15:02:07.827Z,9.55
2019-04-01T15:04:36.717Z,9.90
2019-04-01T15:07:05.631Z,9.60
2019-04-01T15:09:34.536Z,9.68
2019-04-01T15:12:03.428Z,9.25
2019-04-01T15:14:32.337Z,10.00
2019-04-01T15:17:01.226Z,9.63
2019-04-01T15:19:30.141Z,8.63
2019-04-01T15:21:59.020Z,9.80
2019-04-01T15:24:27.979Z,10.35
2019-04-01T15:26:57.415Z,9.65
2019-04-01T15:29:26.342Z,9.25
2019-04-01T15:31:55.239Z,9.40
2019-04-01T15:34:27.660Z,9.70
2019-04-01T15:36:59.754Z,10.40
2019-04-01T15:39:29.894Z,10.35
2019-04-01T15:42:00.161Z,10.65
2019-04-01T15:44:29.890Z,11.00
2019-04-01T15:46:58.778Z,10.78
2019-04-01T15:49:27.647Z,10.25
2019-04-01T15:51:56.584Z,10.35
2019-04-01T15:54:25.470Z,9.68
2019-04-01T15:56:54.389Z,10.38
2019-04-01T15:59:23.281Z,10.50
2019-04-01T16:01:52.194Z,9.28
2019-04-01T16:04:21.080Z,9.78
2019-04-01T16:06:50.004Z,9.60
2019-04-01T16:09:18.866Z,10.32
2019-04-01T16:11:47.785Z,10.20
2019-04-01T16:14:19.232Z,10.28
2019-04-01T16:16:47.240Z,9.95
2019-04-01T16:19:16.132Z,9.98
2019-04-01T16:21:45.032Z,9.65
2019-04-01T16:24:13.908Z,9.90
2019-04-01T16:26:42.822Z,10.50
2019-04-01T16:29:11.723Z,11.30
2019-04-01T16:31:40.613Z,11.10
2019-04-01T16:34:09.502Z,10.18
2019-04-01T16:36:38.406Z,10.50
2019-04-01T16:39:08.126Z,11.08
2019-04-01T16:41:37.605Z,11.65
2019-04-01T16:44:06.517Z,11.40
2019-04-01T16:46:35.410Z,11.08
2019-04-01T16:49:04.321Z,10.93
2019-04-01T16:51:33.198Z,10.90
2019-04-01T16:54:02.137Z,11.78
2019-04-01T16:56:31.016Z,11.12
2019-04-01T16:59:00.872Z,11.18
2019-04-01T17:01:29.767Z,11.38
2019-04-01T17:03:58.675Z,10.88
2019-04-01T17:06:27.566Z,12.00
2019-04-01T17:08:56.505Z,11.33
2019-04-01T17:11:25.427Z,11.75
2019-04-01T17:13:55.544Z,11.90
2019-04-01T17:16:24.740Z,11.88
2019-04-01T17:18:53.613Z,11.65
2019-04-01T17:21:22.555Z,10.85
2019-04-01T17:23:51.427Z,9.50
2019-04-01T17:26:20.351Z,9.98
2019-04-01T17:28:49.239Z,10.40
2019-04-01T17:31:18.162Z,10.20
2019-04-01T17:33:47.751Z,10.32
2019-04-01T17:36:16.991Z,10.03
2019-04-01T17:38:48.128Z,9.28
2019-04-01T17:41:16.511Z,9.78
2019-04-01T17:43:45.669Z,9.20
2019-04-01T17:46:14.907Z,9.18
2019-04-01T17:48:43.791Z,9.48
2019-04-01T17:51:12.712Z,9.33
2019-04-01T17:53:41.614Z,9.58
2019-04-01T17:56:10.541Z,9.68
2019-04-01T17:58:39.472Z,9.10
2019-04-01T18:01:09.414Z,9.65
2019-04-01T18:03:38.927Z,10.20
2019-04-01T18:06:07.819Z,10.68
2019-04-01T18:08:36.728Z,10.00
2019-04-01T18:11:05.600Z,9.83
2019-04-01T18:13:34.536Z,10.13
2019-04-01T18:16:03.402Z,9.90
2019-04-01T18:18:34.105Z,10.28
2019-04-01T18:21:03.480Z,10.23
2019-04-01T18:23:32.771Z,10.35
2019-04-01T18:26:01.668Z,10.48
2019-04-01T18:28:30.581Z,10.85
2019-04-01T18:30:59.385Z,11.15
2019-04-01T18:33:30.044Z,10.80
2019-04-01T18:35:58.844Z,11.05
2019-04-01T18:38:27.734Z,12.30
2019-04-01T18:40:56.644Z,12.10
2019-04-01T18:43:25.531Z,12.60
2019-04-01T18:45:54.449Z,13.62
2019-04-01T18:48:23.335Z,13.45
2019-04-01T18:50:52.262Z,12.90
2019-04-01T18:53:21.135Z,14.73
2019-04-01T18:55:52.626Z,14.93
2019-04-01T18:58:20.625Z,13.60
2019-04-01T19:00:49.530Z,14.60
2019-04-01T19:03:18.443Z,14.23
2019-04-01T19:05:47.319Z,14.73
2019-04-01T19:08:16.231Z,14.85
2019-04-01T19:10:45.121Z,15.45
2019-04-01T19:13:14.037Z,16.07
2019-04-01T19:15:43.774Z,15.43
2019-04-01T19:18:13.049Z,14.98
2019-04-01T19:20:55.358Z,14.78
2019-04-01T19:23:12.508Z,15.48
2019-04-01T19:25:41.388Z,16.20
2019-04-01T19:28:10.225Z,14.47
2019-04-01T19:30:39.118Z,14.60
2019-04-01T19:33:08.921Z,13.80
2019-04-01T19:35:38.201Z,14.73
2019-04-01T19:38:07.516Z,13.98
2019-04-01T19:40:36.976Z,13.95
2019-04-01T19:43:05.861Z,14.03
2019-04-01T19:45:35.182Z,12.53
2019-04-01T19:48:04.062Z,13.48
2019-04-01T19:50:32.976Z,12.58
2019-04-01T19:53:02.853Z,13.62
2019-04-01T19:55:32.069Z,13.03
2019-04-01T19:58:00.947Z,13.68
2019-04-01T20:00:30.796Z,12.93
2019-04-01T20:03:00.169Z,13.30
2019-04-01T20:05:29.077Z,12.98
2019-04-01T20:07:57.969Z,13.03
2019-04-01T20:10:28.413Z,12.43
2019-04-01T20:12:57.502Z,12.33
2019-04-01T20:15:26.416Z,13.10
2019-04-01T20:17:55.304Z,13.32
2019-04-01T20:20:24.213Z,12.33
2019-04-01T20:22:53.937Z,12.93
2019-04-01T20:25:23.364Z,12.73
2019-04-01T20:27:52.261Z,12.68
2019-04-01T20:30:21.962Z,13.08
2019-04-01T20:32:50.872Z,13.32
2019-04-01T20:35:23.590Z,12.63
2019-04-01T20:37:50.321Z,12.53
2019-04-01T20:40:19.213Z,13.13
2019-04-01T20:42:48.113Z,12.78
2019-04-01T20:45:16.996Z,12.05
2019-04-01T20:47:46.309Z,12.10
2019-04-01T20:50:16.097Z,12.43
2019-04-01T20:52:45.030Z,12.60
2019-04-01T20:55:15.114Z,11.85
2019-04-01T20:57:44.006Z,12.50
2019-04-01T21:00:13.231Z,12.70
2019-04-01T21:02:42.105Z,12.80
2019-04-01T21:05:11.084Z,12.45
2019-04-01T21:07:39.953Z,11.83
2019-04-01T21:10:09.450Z,11.43
2019-04-01T21:12:38.325Z,12.00
2019-04-01T21:15:08.440Z,12.70
2019-04-01T21:17:37.336Z,11.65
2019-04-01T21:20:07.836Z,11.48
2019-04-01T21:22:37.256Z,11.68
2019-04-01T21:25:07.456Z,11.80
2019-04-01T21:27:36.327Z,11.83
2019-04-01T21:30:12.282Z,11.22
2019-04-01T21:32:41.167Z,12.07
2019-04-01T21:35:10.176Z,12.05
2019-04-01T21:37:39.070Z,11.73
2019-04-01T21:40:08.576Z,11.25
2019-04-01T21:42:37.469Z,11.00
2019-04-01T21:45:08.097Z,11.53
2019-04-01T21:47:36.993Z,11.83
2019-04-01T21:50:07.319Z,11.80
2019-04-01T21:52:36.298Z,13.65
2019-04-01T21:55:08.148Z,13.45
2019-04-01T21:57:37.046Z,11.78
2019-04-01T22:00:17.925Z,12.33
2019-04-01T22:02:45.948Z,12.10
2019-04-01T22:05:14.928Z,11.88
2019-04-01T22:07:43.835Z,13.05
2019-04-01T22:10:13.337Z,12.88
2019-04-01T22:12:42.243Z,13.50
2019-04-01T22:15:11.339Z,13.70
2019-04-01T22:17:40.261Z,15.05
2019-04-01T22:20:10.359Z,14.23
2019-04-01T22:22:39.396Z,13.80
2019-04-01T22:25:08.275Z,13.62
2019-04-01T22:27:37.199Z,14.23
2019-04-01T22:30:09.299Z,14.38
2019-04-01T22:32:38.225Z,14.58
2019-04-01T22:35:08.537Z,14.40
2019-04-01T22:37:38.083Z,15.32
2019-04-01T22:40:07.645Z,14.70
2019-04-01T22:42:36.581Z,13.98
2019-04-01T22:45:07.602Z,15.20
2019-04-01T22:47:36.484Z,14.05
2019-04-01T22:50:10.117Z,14.78
2019-04-01T22:52:41.884Z,14.78
2019-04-01T22:55:09.824Z,14.38
2019-04-01T22:57:38.714Z,14.95
2019-04-01T23:00:07.735Z,14.80
2019-04-01T23:02:36.639Z,14.00
2019-04-01T23:05:08.316Z,13.88
2019-04-01T23:07:37.107Z,15.18
2019-04-01T23:10:09.494Z,15.05
2019-04-01T23:12:38.393Z,13.95
2019-04-01T23:15:09.020Z,15.50
2019-04-01T23:17:38.700Z,14.78
2019-04-01T23:20:08.039Z,14.38
2019-04-01T23:22:36.949Z,15.53
2019-04-01T23:25:07.074Z,15.28
2019-04-01T23:27:35.996Z,14.83
2019-04-01T23:30:09.646Z,13.58
2019-04-01T23:32:41.504Z,14.90
2019-04-01T23:35:09.108Z,13.95
2019-04-01T23:37:38.434Z,14.90
2019-04-01T23:40:08.738Z,14.80
2019-04-01T23:42:38.074Z,14.87
2019-04-01T23:45:08.562Z,14.55
2019-04-01T23:47:37.484Z,13.95
2019-04-01T23:50:09.074Z,14.43
2019-04-01T23:52:38.726Z,13.93
2019-04-01T23:55:07.661Z,13.25
2019-04-01T23:57:36.556Z,14.98
